sensor_id;sensor_type;location;lat;lon;timestamp;temperature;humidity
37222;DHT22;23119;51.842;-2.230;2023-09-18T00:00:29;18.20;99.90
37222;DHT22;23119;51.842;-2.230;2023-09-18T00:02:56;18.30;99.90
37222;DHT22;23119;51.842;-2.230;2023-09-18T00:05:21;18.20;99.90
37222;DHT22;23119;51.842;-2.230;2023-09-18T00:07:48;18.20;99.90
37222;DHT22;23119;51.842;-2.230;2023-09-18T00:10:14;18.30;99.90
37222;DHT22;23119;51.842;-2.230;2023-09-18T00:12:40;18.30;99.90
37222;DHT22;23119;51.842;-2.230;2023-09-18T00:15:09;18.30;99.90
37222;DHT22;23119;51.842;-2.230;2023-09-18T00:17:35;18.30;99.90
37222;DHT22;23119;51.842;-2.230;2023-09-18T00:20:04;18.30;99.90
37222;DHT22;23119;51.842;-2.230;2023-09-18T00:22:32;18.30;99.90
37222;DHT22;23119;51.842;-2.230;2023-09-18T00:24:58;18.30;99.90
37222;DHT22;23119;51.842;-2.230;2023-09-18T00:27:24;18.40;99.90
37222;DHT22;23119;51.842;-2.230;2023-09-18T00:29:50;18.30;99.90
37222;DHT22;23119;51.842;-2.230;2023-09-18T00:32:15;18.30;99.90
37222;DHT22;23119;51.842;-2.230;2023-09-18T00:34:41;18.30;99.90
37222;DHT22;23119;51.842;-2.230;2023-09-18T00:37:07;18.30;99.90
37222;DHT22;23119;51.842;-2.230;2023-09-18T00:39:32;18.30;99.90
37222;DHT22;23119;51.842;-2.230;2023-09-18T00:42:00;18.30;99.90
37222;DHT22;23119;51.842;-2.230;2023-09-18T00:44:28;18.30;99.90
37222;DHT22;23119;51.842;-2.230;2023-09-18T00:46:54;18.30;99.90
37222;DHT22;23119;51.842;-2.230;2023-09-18T00:49:24;18.30;99.90
37222;DHT22;23119;51.842;-2.230;2023-09-18T00:51:50;18.30;99.90
37222;DHT22;23119;51.842;-2.230;2023-09-18T00:54:19;18.30;99.90
37222;DHT22;23119;51.842;-2.230;2023-09-18T00:56:52;18.30;99.90
37222;DHT22;23119;51.842;-2.230;2023-09-18T00:59:20;18.30;99.90
37222;DHT22;23119;51.842;-2.230;2023-09-18T01:01:51;18.30;99.90
37222;DHT22;23119;51.842;-2.230;2023-09-18T01:04:18;18.30;99.90
37222;DHT22;23119;51.842;-2.230;2023-09-18T01:06:49;18.30;99.90
37222;DHT22;23119;51.842;-2.230;2023-09-18T01:09:19;18.30;99.90
37222;DHT22;23119;51.842;-2.230;2023-09-18T01:11:57;18.30;99.90
37222;DHT22;23119;51.842;-2.230;2023-09-18T01:14:30;18.30;99.90
37222;DHT22;23119;51.842;-2.230;2023-09-18T01:16:58;18.30;99.90
37222;DHT22;23119;51.842;-2.230;2023-09-18T01:19:43;18.40;99.90
37222;DHT22;23119;51.842;-2.230;2023-09-18T01:22:17;18.30;99.90
37222;DHT22;23119;51.842;-2.230;2023-09-18T01:24:44;18.40;99.90
37222;DHT22;23119;51.842;-2.230;2023-09-18T01:27:13;18.40;99.90
37222;DHT22;23119;51.842;-2.230;2023-09-18T01:29:40;18.40;99.90
37222;DHT22;23119;51.842;-2.230;2023-09-18T01:32:06;18.40;99.90
37222;DHT22;23119;51.842;-2.230;2023-09-18T01:34:34;18.40;99.90
37222;DHT22;23119;51.842;-2.230;2023-09-18T01:37:05;18.40;99.90
37222;DHT22;23119;51.842;-2.230;2023-09-18T01:39:35;18.40;99.90
37222;DHT22;23119;51.842;-2.230;2023-09-18T01:42:05;18.40;99.90
37222;DHT22;23119;51.842;-2.230;2023-09-18T01:44:35;18.40;99.90
37222;DHT22;23119;51.842;-2.230;2023-09-18T01:47:04;18.40;99.90
37222;DHT22;23119;51.842;-2.230;2023-09-18T01:49:39;18.30;99.90
37222;DHT22;23119;51.842;-2.230;2023-09-18T01:52:09;18.30;99.90
37222;DHT22;23119;51.842;-2.230;2023-09-18T01:54:37;18.30;99.90
37222;DHT22;23119;51.842;-2.230;2023-09-18T01:57:06;18.30;99.90
37222;DHT22;23119;51.842;-2.230;2023-09-18T01:59:35;18.30;99.90
37222;DHT22;23119;51.842;-2.230;2023-09-18T02:02:00;18.30;99.90
37222;DHT22;23119;51.842;-2.230;2023-09-18T02:04:29;18.30;99.90
37222;DHT22;23119;51.842;-2.230;2023-09-18T02:06:56;18.30;99.90
37222;DHT22;23119;51.842;-2.230;2023-09-18T02:09:22;18.30;99.90
37222;DHT22;23119;51.842;-2.230;2023-09-18T02:11:50;18.30;99.90
37222;DHT22;23119;51.842;-2.230;2023-09-18T02:14:16;18.30;99.90
37222;DHT22;23119;51.842;-2.230;2023-09-18T02:16:43;19.10;99.90
37222;DHT22;23119;51.842;-2.230;2023-09-18T02:19:10;18.10;99.90
37222;DHT22;23119;51.842;-2.230;2023-09-18T02:21:36;18.00;99.90
37222;DHT22;23119;51.842;-2.230;2023-09-18T02:24:03;17.90;99.90
37222;DHT22;23119;51.842;-2.230;2023-09-18T02:26:38;17.90;99.90
37222;DHT22;23119;51.842;-2.230;2023-09-18T02:29:08;17.80;99.90
37222;DHT22;23119;51.842;-2.230;2023-09-18T02:31:39;17.80;99.90
37222;DHT22;23119;51.842;-2.230;2023-09-18T02:34:06;17.70;99.90
37222;DHT22;23119;51.842;-2.230;2023-09-18T02:36:33;17.70;99.90
37222;DHT22;23119;51.842;-2.230;2023-09-18T02:38:58;17.60;99.90
37222;DHT22;23119;51.842;-2.230;2023-09-18T02:41:24;17.60;99.90
37222;DHT22;23119;51.842;-2.230;2023-09-18T02:43:50;17.50;99.90
37222;DHT22;23119;51.842;-2.230;2023-09-18T02:46:16;17.40;99.90
37222;DHT22;23119;51.842;-2.230;2023-09-18T02:48:41;17.40;99.90
37222;DHT22;23119;51.842;-2.230;2023-09-18T02:51:09;17.40;99.90
37222;DHT22;23119;51.842;-2.230;2023-09-18T02:53:38;17.30;99.90
37222;DHT22;23119;51.842;-2.230;2023-09-18T02:56:03;17.30;99.90
37222;DHT22;23119;51.842;-2.230;2023-09-18T02:58:31;17.30;99.90
37222;DHT22;23119;51.842;-2.230;2023-09-18T03:01:02;17.40;99.90
37222;DHT22;23119;51.842;-2.230;2023-09-18T03:03:33;17.40;99.90
37222;DHT22;23119;51.842;-2.230;2023-09-18T03:06:04;17.40;99.90
37222;DHT22;23119;51.842;-2.230;2023-09-18T03:08:32;17.40;99.90
37222;DHT22;23119;51.842;-2.230;2023-09-18T03:10:58;17.50;99.90
37222;DHT22;23119;51.842;-2.230;2023-09-18T03:13:25;17.50;99.90
37222;DHT22;23119;51.842;-2.230;2023-09-18T03:15:56;17.40;99.90
37222;DHT22;23119;51.842;-2.230;2023-09-18T03:18:24;17.50;99.90
37222;DHT22;23119;51.842;-2.230;2023-09-18T03:20:53;17.50;99.90
37222;DHT22;23119;51.842;-2.230;2023-09-18T03:23:18;17.60;99.90
37222;DHT22;23119;51.842;-2.230;2023-09-18T03:25:44;17.60;99.90
37222;DHT22;23119;51.842;-2.230;2023-09-18T03:28:10;17.60;99.90
37222;DHT22;23119;51.842;-2.230;2023-09-18T03:30:35;17.70;99.90
37222;DHT22;23119;51.842;-2.230;2023-09-18T03:33:02;17.60;99.90
37222;DHT22;23119;51.842;-2.230;2023-09-18T03:35:30;17.70;99.90
37222;DHT22;23119;51.842;-2.230;2023-09-18T03:37:58;17.70;99.90
37222;DHT22;23119;51.842;-2.230;2023-09-18T03:40:24;17.70;99.90
37222;DHT22;23119;51.842;-2.230;2023-09-18T03:42:52;17.70;99.90
37222;DHT22;23119;51.842;-2.230;2023-09-18T03:45:17;17.70;99.90
37222;DHT22;23119;51.842;-2.230;2023-09-18T03:47:48;17.70;99.90
37222;DHT22;23119;51.842;-2.230;2023-09-18T03:50:15;17.70;99.90
37222;DHT22;23119;51.842;-2.230;2023-09-18T03:52:41;17.60;99.90
37222;DHT22;23119;51.842;-2.230;2023-09-18T03:55:07;17.60;99.90
37222;DHT22;23119;51.842;-2.230;2023-09-18T03:57:34;17.60;99.90
37222;DHT22;23119;51.842;-2.230;2023-09-18T04:00:07;17.60;99.90
37222;DHT22;23119;51.842;-2.230;2023-09-18T04:02:36;17.50;99.90
37222;DHT22;23119;51.842;-2.230;2023-09-18T04:05:02;17.40;99.90
37222;DHT22;23119;51.842;-2.230;2023-09-18T04:07:29;17.50;99.90
37222;DHT22;23119;51.842;-2.230;2023-09-18T04:09:54;17.40;99.90
37222;DHT22;23119;51.842;-2.230;2023-09-18T04:12:22;17.40;99.90
37222;DHT22;23119;51.842;-2.230;2023-09-18T04:14:48;17.30;99.90
37222;DHT22;23119;51.842;-2.230;2023-09-18T04:17:21;17.30;99.90
37222;DHT22;23119;51.842;-2.230;2023-09-18T04:19:46;17.30;99.90
37222;DHT22;23119;51.842;-2.230;2023-09-18T04:22:12;17.30;99.90
37222;DHT22;23119;51.842;-2.230;2023-09-18T04:24:41;17.30;99.90
37222;DHT22;23119;51.842;-2.230;2023-09-18T04:27:07;17.30;99.90
37222;DHT22;23119;51.842;-2.230;2023-09-18T04:29:32;17.30;99.90
37222;DHT22;23119;51.842;-2.230;2023-09-18T04:31:58;17.20;99.90
37222;DHT22;23119;51.842;-2.230;2023-09-18T04:34:24;17.30;99.90
37222;DHT22;23119;51.842;-2.230;2023-09-18T04:36:52;17.20;99.90
37222;DHT22;23119;51.842;-2.230;2023-09-18T04:39:17;17.20;99.90
37222;DHT22;23119;51.842;-2.230;2023-09-18T04:41:44;17.20;99.90
37222;DHT22;23119;51.842;-2.230;2023-09-18T04:44:12;17.10;99.90
37222;DHT22;23119;51.842;-2.230;2023-09-18T04:46:39;17.10;99.90
37222;DHT22;23119;51.842;-2.230;2023-09-18T04:49:07;17.00;99.90
37222;DHT22;23119;51.842;-2.230;2023-09-18T04:51:35;17.00;99.90
37222;DHT22;23119;51.842;-2.230;2023-09-18T04:54:01;16.90;99.90
37222;DHT22;23119;51.842;-2.230;2023-09-18T04:56:27;16.90;99.90
37222;DHT22;23119;51.842;-2.230;2023-09-18T04:58:53;16.90;99.90
37222;DHT22;23119;51.842;-2.230;2023-09-18T05:01:21;16.80;99.90
37222;DHT22;23119;51.842;-2.230;2023-09-18T05:03:50;16.80;99.90
37222;DHT22;23119;51.842;-2.230;2023-09-18T05:06:16;16.70;99.90
37222;DHT22;23119;51.842;-2.230;2023-09-18T05:08:43;16.70;99.90
37222;DHT22;23119;51.842;-2.230;2023-09-18T05:11:09;16.60;99.90
37222;DHT22;23119;51.842;-2.230;2023-09-18T05:13:35;16.60;99.90
37222;DHT22;23119;51.842;-2.230;2023-09-18T05:16:01;16.60;99.90
37222;DHT22;23119;51.842;-2.230;2023-09-18T05:18:28;16.60;99.90
37222;DHT22;23119;51.842;-2.230;2023-09-18T05:20:54;16.50;99.90
37222;DHT22;23119;51.842;-2.230;2023-09-18T05:23:23;16.50;99.90
37222;DHT22;23119;51.842;-2.230;2023-09-18T05:25:52;16.40;99.90
37222;DHT22;23119;51.842;-2.230;2023-09-18T05:28:18;16.40;99.90
37222;DHT22;23119;51.842;-2.230;2023-09-18T05:30:44;16.40;99.90
37222;DHT22;23119;51.842;-2.230;2023-09-18T05:33:10;16.40;99.90
37222;DHT22;23119;51.842;-2.230;2023-09-18T05:35:41;16.30;99.90
37222;DHT22;23119;51.842;-2.230;2023-09-18T05:38:07;16.30;99.90
37222;DHT22;23119;51.842;-2.230;2023-09-18T05:40:41;16.30;99.90
37222;DHT22;23119;51.842;-2.230;2023-09-18T05:43:11;16.20;99.90
37222;DHT22;23119;51.842;-2.230;2023-09-18T05:45:37;16.20;99.90
37222;DHT22;23119;51.842;-2.230;2023-09-18T05:48:03;16.20;99.90
37222;DHT22;23119;51.842;-2.230;2023-09-18T05:50:30;16.20;99.90
37222;DHT22;23119;51.842;-2.230;2023-09-18T05:52:57;16.20;99.90
37222;DHT22;23119;51.842;-2.230;2023-09-18T05:55:33;16.20;99.90
37222;DHT22;23119;51.842;-2.230;2023-09-18T05:58:00;16.20;99.90
37222;DHT22;23119;51.842;-2.230;2023-09-18T06:00:26;16.20;99.90
37222;DHT22;23119;51.842;-2.230;2023-09-18T06:02:52;16.20;99.90
37222;DHT22;23119;51.842;-2.230;2023-09-18T06:05:18;16.40;99.90
37222;DHT22;23119;51.842;-2.230;2023-09-18T06:07:47;16.70;99.90
37222;DHT22;23119;51.842;-2.230;2023-09-18T06:10:16;17.30;99.90
37222;DHT22;23119;51.842;-2.230;2023-09-18T06:12:43;18.00;99.90
37222;DHT22;23119;51.842;-2.230;2023-09-18T06:15:12;18.70;99.90
37222;DHT22;23119;51.842;-2.230;2023-09-18T06:17:44;19.60;99.90
37222;DHT22;23119;51.842;-2.230;2023-09-18T06:20:11;20.40;99.90
37222;DHT22;23119;51.842;-2.230;2023-09-18T06:22:41;21.00;99.90
37222;DHT22;23119;51.842;-2.230;2023-09-18T06:25:08;21.00;99.90
37222;DHT22;23119;51.842;-2.230;2023-09-18T06:27:36;20.70;99.90
37222;DHT22;23119;51.842;-2.230;2023-09-18T06:30:03;20.20;99.90
37222;DHT22;23119;51.842;-2.230;2023-09-18T06:32:29;19.70;99.90
37222;DHT22;23119;51.842;-2.230;2023-09-18T06:34:57;19.30;99.90
37222;DHT22;23119;51.842;-2.230;2023-09-18T06:37:24;19.00;99.90
37222;DHT22;23119;51.842;-2.230;2023-09-18T06:39:49;18.70;99.90
37222;DHT22;23119;51.842;-2.230;2023-09-18T06:42:35;18.60;99.90
37222;DHT22;23119;51.842;-2.230;2023-09-18T06:45:03;18.80;99.90
37222;DHT22;23119;51.842;-2.230;2023-09-18T06:47:32;19.70;99.90
37222;DHT22;23119;51.842;-2.230;2023-09-18T06:50:00;20.70;99.90
37222;DHT22;23119;51.842;-2.230;2023-09-18T06:52:27;22.40;99.90
37222;DHT22;23119;51.842;-2.230;2023-09-18T06:54:53;24.10;99.90
37222;DHT22;23119;51.842;-2.230;2023-09-18T06:57:19;25.60;99.90
37222;DHT22;23119;51.842;-2.230;2023-09-18T06:59:50;26.90;99.90
37222;DHT22;23119;51.842;-2.230;2023-09-18T07:02:16;27.90;99.90
37222;DHT22;23119;51.842;-2.230;2023-09-18T07:04:42;28.90;99.90
37222;DHT22;23119;51.842;-2.230;2023-09-18T07:07:14;29.80;98.60
37222;DHT22;23119;51.842;-2.230;2023-09-18T07:09:43;30.80;97.00
37222;DHT22;23119;51.842;-2.230;2023-09-18T07:12:09;31.70;95.70
37222;DHT22;23119;51.842;-2.230;2023-09-18T07:14:35;32.50;94.90
37222;DHT22;23119;51.842;-2.230;2023-09-18T07:17:01;33.30;94.00
37222;DHT22;23119;51.842;-2.230;2023-09-18T07:19:27;33.90;93.10
37222;DHT22;23119;51.842;-2.230;2023-09-18T07:21:53;34.60;92.10
37222;DHT22;23119;51.842;-2.230;2023-09-18T07:24:19;35.20;91.30
37222;DHT22;23119;51.842;-2.230;2023-09-18T07:26:47;35.70;90.60
37222;DHT22;23119;51.842;-2.230;2023-09-18T07:29:14;36.40;89.30
37222;DHT22;23119;51.842;-2.230;2023-09-18T07:31:41;36.90;86.80
37222;DHT22;23119;51.842;-2.230;2023-09-18T07:34:08;37.20;85.00
37222;DHT22;23119;51.842;-2.230;2023-09-18T07:36:33;37.50;84.60
37222;DHT22;23119;51.842;-2.230;2023-09-18T07:38:59;37.90;83.10
37222;DHT22;23119;51.842;-2.230;2023-09-18T07:41:25;38.00;81.20
37222;DHT22;23119;51.842;-2.230;2023-09-18T07:43:51;37.00;81.30
37222;DHT22;23119;51.842;-2.230;2023-09-18T07:46:16;36.90;80.00
37222;DHT22;23119;51.842;-2.230;2023-09-18T07:48:45;36.80;81.20
37222;DHT22;23119;51.842;-2.230;2023-09-18T07:51:13;37.40;80.90
37222;DHT22;23119;51.842;-2.230;2023-09-18T07:53:41;38.10;79.90
37222;DHT22;23119;51.842;-2.230;2023-09-18T07:56:07;38.90;79.60
37222;DHT22;23119;51.842;-2.230;2023-09-18T07:58:38;39.70;78.20
37222;DHT22;23119;51.842;-2.230;2023-09-18T08:01:04;40.10;77.30
37222;DHT22;23119;51.842;-2.230;2023-09-18T08:03:31;39.10;78.40
37222;DHT22;23119;51.842;-2.230;2023-09-18T08:05:59;37.40;79.50
37222;DHT22;23119;51.842;-2.230;2023-09-18T08:08:25;35.10;80.50
37222;DHT22;23119;51.842;-2.230;2023-09-18T08:10:53;32.50;84.00
37222;DHT22;23119;51.842;-2.230;2023-09-18T08:13:19;30.50;87.70
37222;DHT22;23119;51.842;-2.230;2023-09-18T08:15:45;29.30;90.10
37222;DHT22;23119;51.842;-2.230;2023-09-18T08:18:12;29.80;90.00
37222;DHT22;23119;51.842;-2.230;2023-09-18T08:20:41;31.60;88.50
37222;DHT22;23119;51.842;-2.230;2023-09-18T08:23:09;33.10;87.20
37222;DHT22;23119;51.842;-2.230;2023-09-18T08:25:34;34.70;85.30
37222;DHT22;23119;51.842;-2.230;2023-09-18T08:28:00;34.80;83.50
37222;DHT22;23119;51.842;-2.230;2023-09-18T08:30:26;33.50;84.20
37222;DHT22;23119;51.842;-2.230;2023-09-18T08:32:52;31.50;86.50
37222;DHT22;23119;51.842;-2.230;2023-09-18T08:35:17;30.00;89.50
37222;DHT22;23119;51.842;-2.230;2023-09-18T08:37:43;28.70;91.10
37222;DHT22;23119;51.842;-2.230;2023-09-18T08:40:13;27.80;92.20
37222;DHT22;23119;51.842;-2.230;2023-09-18T08:42:44;27.00;93.30
37222;DHT22;23119;51.842;-2.230;2023-09-18T08:45:14;26.40;94.30
37222;DHT22;23119;51.842;-2.230;2023-09-18T08:47:41;25.80;95.40
37222;DHT22;23119;51.842;-2.230;2023-09-18T08:50:11;25.20;96.40
37222;DHT22;23119;51.842;-2.230;2023-09-18T08:52:37;24.80;97.40
37222;DHT22;23119;51.842;-2.230;2023-09-18T08:55:09;24.50;98.10
37222;DHT22;23119;51.842;-2.230;2023-09-18T08:57:39;24.20;98.90
37222;DHT22;23119;51.842;-2.230;2023-09-18T09:00:07;23.90;99.80
37222;DHT22;23119;51.842;-2.230;2023-09-18T09:02:45;23.40;99.90
37222;DHT22;23119;51.842;-2.230;2023-09-18T09:05:14;22.90;99.90
37222;DHT22;23119;51.842;-2.230;2023-09-18T09:07:40;22.50;99.90
37222;DHT22;23119;51.842;-2.230;2023-09-18T09:10:06;22.20;99.90
37222;DHT22;23119;51.842;-2.230;2023-09-18T09:12:49;22.00;99.90
37222;DHT22;23119;51.842;-2.230;2023-09-18T09:15:16;21.70;99.90
37222;DHT22;23119;51.842;-2.230;2023-09-18T09:17:43;21.50;99.90
37222;DHT22;23119;51.842;-2.230;2023-09-18T09:20:14;21.20;99.90
37222;DHT22;23119;51.842;-2.230;2023-09-18T09:22:41;21.10;99.90
37222;DHT22;23119;51.842;-2.230;2023-09-18T09:25:23;20.90;99.90
37222;DHT22;23119;51.842;-2.230;2023-09-18T09:27:53;20.80;99.90
37222;DHT22;23119;51.842;-2.230;2023-09-18T09:30:24;20.70;99.90
37222;DHT22;23119;51.842;-2.230;2023-09-18T09:32:51;20.50;99.90
37222;DHT22;23119;51.842;-2.230;2023-09-18T09:35:28;20.40;99.90
37222;DHT22;23119;51.842;-2.230;2023-09-18T09:37:59;20.40;99.90
37222;DHT22;23119;51.842;-2.230;2023-09-18T09:40:27;20.20;99.90
37222;DHT22;23119;51.842;-2.230;2023-09-18T09:42:58;20.20;99.90
37222;DHT22;23119;51.842;-2.230;2023-09-18T09:45:31;20.10;99.90
37222;DHT22;23119;51.842;-2.230;2023-09-18T09:48:05;20.20;99.90
37222;DHT22;23119;51.842;-2.230;2023-09-18T09:50:32;20.10;99.90
37222;DHT22;23119;51.842;-2.230;2023-09-18T09:52:58;20.00;99.90
37222;DHT22;23119;51.842;-2.230;2023-09-18T09:55:32;20.00;99.90
37222;DHT22;23119;51.842;-2.230;2023-09-18T09:58:04;20.00;99.90
37222;DHT22;23119;51.842;-2.230;2023-09-18T10:00:39;20.00;99.90
37222;DHT22;23119;51.842;-2.230;2023-09-18T10:03:13;20.00;99.90
37222;DHT22;23119;51.842;-2.230;2023-09-18T10:05:44;20.10;99.90
37222;DHT22;23119;51.842;-2.230;2023-09-18T10:08:16;20.10;99.90
37222;DHT22;23119;51.842;-2.230;2023-09-18T10:10:49;20.40;99.90
37222;DHT22;23119;51.842;-2.230;2023-09-18T10:13:36;20.60;99.90
37222;DHT22;23119;51.842;-2.230;2023-09-18T10:16:07;20.80;99.90
37222;DHT22;23119;51.842;-2.230;2023-09-18T10:21:41;20.80;99.90
37222;DHT22;23119;51.842;-2.230;2023-09-18T10:26:48;20.70;99.90
37222;DHT22;23119;51.842;-2.230;2023-09-18T10:29:17;20.70;99.90
37222;DHT22;23119;51.842;-2.230;2023-09-18T10:31:45;20.70;99.90
37222;DHT22;23119;51.842;-2.230;2023-09-18T10:34:13;20.60;99.90
37222;DHT22;23119;51.842;-2.230;2023-09-18T10:36:49;20.60;99.90
37222;DHT22;23119;51.842;-2.230;2023-09-18T10:39:15;20.50;99.90
37222;DHT22;23119;51.842;-2.230;2023-09-18T10:41:49;20.50;99.90
37222;DHT22;23119;51.842;-2.230;2023-09-18T10:44:16;20.40;99.90
37222;DHT22;23119;51.842;-2.230;2023-09-18T10:46:51;20.30;99.90
37222;DHT22;23119;51.842;-2.230;2023-09-18T10:49:20;20.30;99.90
37222;DHT22;23119;51.842;-2.230;2023-09-18T10:51:47;20.30;99.90
37222;DHT22;23119;51.842;-2.230;2023-09-18T10:54:20;20.30;99.90
37222;DHT22;23119;51.842;-2.230;2023-09-18T10:56:46;20.50;99.90
37222;DHT22;23119;51.842;-2.230;2023-09-18T10:59:14;20.80;99.90
37222;DHT22;23119;51.842;-2.230;2023-09-18T11:01:43;21.20;99.90
37222;DHT22;23119;51.842;-2.230;2023-09-18T11:04:09;21.50;99.90
37222;DHT22;23119;51.842;-2.230;2023-09-18T11:09:25;22.10;99.90
37222;DHT22;23119;51.842;-2.230;2023-09-18T11:12:03;22.40;99.90
37222;DHT22;23119;51.842;-2.230;2023-09-18T11:17:33;22.50;99.90
37222;DHT22;23119;51.842;-2.230;2023-09-18T11:20:17;22.30;99.90
37222;DHT22;23119;51.842;-2.230;2023-09-18T11:22:57;22.20;99.90
37222;DHT22;23119;51.842;-2.230;2023-09-18T11:25:40;22.00;99.90
37222;DHT22;23119;51.842;-2.230;2023-09-18T11:28:25;21.90;99.90
37222;DHT22;23119;51.842;-2.230;2023-09-18T11:30:53;21.60;99.90
37222;DHT22;23119;51.842;-2.230;2023-09-18T11:33:39;21.40;99.90
37222;DHT22;23119;51.842;-2.230;2023-09-18T11:38:57;20.80;99.90
37222;DHT22;23119;51.842;-2.230;2023-09-18T11:41:29;20.60;99.90
37222;DHT22;23119;51.842;-2.230;2023-09-18T11:46:50;20.30;99.90
37222;DHT22;23119;51.842;-2.230;2023-09-18T11:49:24;20.30;99.90
37222;DHT22;23119;51.842;-2.230;2023-09-18T11:51:58;20.30;99.90
37222;DHT22;23119;51.842;-2.230;2023-09-18T11:54:24;20.30;99.90
37222;DHT22;23119;51.842;-2.230;2023-09-18T11:56:50;20.30;99.90
37222;DHT22;23119;51.842;-2.230;2023-09-18T11:59:18;20.40;99.90
37222;DHT22;23119;51.842;-2.230;2023-09-18T12:01:53;20.60;99.90
37222;DHT22;23119;51.842;-2.230;2023-09-18T12:04:27;20.70;99.90
37222;DHT22;23119;51.842;-2.230;2023-09-18T12:06:53;20.80;99.90
37222;DHT22;23119;51.842;-2.230;2023-09-18T12:09:18;20.80;99.90
37222;DHT22;23119;51.842;-2.230;2023-09-18T12:11:45;20.90;99.90
37222;DHT22;23119;51.842;-2.230;2023-09-18T12:14:11;20.90;99.90
37222;DHT22;23119;51.842;-2.230;2023-09-18T12:16:38;21.00;99.90
37222;DHT22;23119;51.842;-2.230;2023-09-18T12:19:07;21.10;99.90
37222;DHT22;23119;51.842;-2.230;2023-09-18T12:21:39;21.20;99.90
37222;DHT22;23119;51.842;-2.230;2023-09-18T12:24:05;21.20;99.90
37222;DHT22;23119;51.842;-2.230;2023-09-18T12:26:31;21.20;99.90
37222;DHT22;23119;51.842;-2.230;2023-09-18T12:28:59;21.20;99.90
37222;DHT22;23119;51.842;-2.230;2023-09-18T12:31:25;21.40;99.90
37222;DHT22;23119;51.842;-2.230;2023-09-18T12:33:51;21.50;99.90
37222;DHT22;23119;51.842;-2.230;2023-09-18T12:36:19;21.50;99.90
37222;DHT22;23119;51.842;-2.230;2023-09-18T12:38:56;21.40;99.90
37222;DHT22;23119;51.842;-2.230;2023-09-18T12:41:27;21.30;99.90
37222;DHT22;23119;51.842;-2.230;2023-09-18T12:43:54;21.20;99.90
37222;DHT22;23119;51.842;-2.230;2023-09-18T12:46:19;21.20;99.90
37222;DHT22;23119;51.842;-2.230;2023-09-18T12:48:47;21.30;99.90
37222;DHT22;23119;51.842;-2.230;2023-09-18T12:51:14;21.30;99.90
37222;DHT22;23119;51.842;-2.230;2023-09-18T12:53:41;21.30;99.90
37222;DHT22;23119;51.842;-2.230;2023-09-18T12:56:12;21.40;99.90
37222;DHT22;23119;51.842;-2.230;2023-09-18T12:58:41;21.60;99.90
37222;DHT22;23119;51.842;-2.230;2023-09-18T13:01:13;21.90;99.90
37222;DHT22;23119;51.842;-2.230;2023-09-18T13:03:53;22.20;99.90
37222;DHT22;23119;51.842;-2.230;2023-09-18T13:06:19;22.40;99.90
37222;DHT22;23119;51.842;-2.230;2023-09-18T13:08:45;22.50;99.90
37222;DHT22;23119;51.842;-2.230;2023-09-18T13:11:15;22.50;99.90
37222;DHT22;23119;51.842;-2.230;2023-09-18T13:13:42;22.50;99.90
37222;DHT22;23119;51.842;-2.230;2023-09-18T13:16:09;22.40;99.90
37222;DHT22;23119;51.842;-2.230;2023-09-18T13:18:35;22.30;99.90
37222;DHT22;23119;51.842;-2.230;2023-09-18T13:21:14;22.20;99.90
37222;DHT22;23119;51.842;-2.230;2023-09-18T13:23:39;22.00;99.90
37222;DHT22;23119;51.842;-2.230;2023-09-18T13:26:06;22.00;99.90
37222;DHT22;23119;51.842;-2.230;2023-09-18T13:28:37;22.00;99.90
37222;DHT22;23119;51.842;-2.230;2023-09-18T13:31:05;22.00;99.90
37222;DHT22;23119;51.842;-2.230;2023-09-18T13:33:32;22.00;99.90
37222;DHT22;23119;51.842;-2.230;2023-09-18T13:35:59;22.00;99.90
37222;DHT22;23119;51.842;-2.230;2023-09-18T13:38:25;22.10;99.90
37222;DHT22;23119;51.842;-2.230;2023-09-18T13:40:53;22.10;99.90
37222;DHT22;23119;51.842;-2.230;2023-09-18T13:43:20;22.10;99.90
37222;DHT22;23119;51.842;-2.230;2023-09-18T13:45:49;21.80;99.90
37222;DHT22;23119;51.842;-2.230;2023-09-18T13:48:19;21.60;99.90
37222;DHT22;23119;51.842;-2.230;2023-09-18T13:50:46;21.20;99.90
37222;DHT22;23119;51.842;-2.230;2023-09-18T13:53:14;20.70;99.90
37222;DHT22;23119;51.842;-2.230;2023-09-18T13:55:41;20.40;99.90
37222;DHT22;23119;51.842;-2.230;2023-09-18T13:58:07;20.20;99.90
37222;DHT22;23119;51.842;-2.230;2023-09-18T14:00:32;20.30;99.90
37222;DHT22;23119;51.842;-2.230;2023-09-18T14:03:05;20.40;99.90
37222;DHT22;23119;51.842;-2.230;2023-09-18T14:05:31;20.40;99.90
37222;DHT22;23119;51.842;-2.230;2023-09-18T14:07:59;20.40;99.90
37222;DHT22;23119;51.842;-2.230;2023-09-18T14:10:26;20.30;99.90
37222;DHT22;23119;51.842;-2.230;2023-09-18T14:12:52;20.30;99.90
37222;DHT22;23119;51.842;-2.230;2023-09-18T14:15:18;20.40;99.90
37222;DHT22;23119;51.842;-2.230;2023-09-18T14:17:44;20.50;99.90
37222;DHT22;23119;51.842;-2.230;2023-09-18T14:20:10;20.50;99.90
37222;DHT22;23119;51.842;-2.230;2023-09-18T14:22:36;20.60;99.90
37222;DHT22;23119;51.842;-2.230;2023-09-18T14:25:02;20.60;99.90
37222;DHT22;23119;51.842;-2.230;2023-09-18T14:27:32;20.60;99.90
37222;DHT22;23119;51.842;-2.230;2023-09-18T14:30:00;20.50;99.90
37222;DHT22;23119;51.842;-2.230;2023-09-18T14:32:29;20.50;99.90
37222;DHT22;23119;51.842;-2.230;2023-09-18T14:34:57;20.40;99.90
37222;DHT22;23119;51.842;-2.230;2023-09-18T14:37:26;20.40;99.90
37222;DHT22;23119;51.842;-2.230;2023-09-18T14:39:52;20.30;99.90
37222;DHT22;23119;51.842;-2.230;2023-09-18T14:42:18;20.40;99.90
37222;DHT22;23119;51.842;-2.230;2023-09-18T14:44:45;20.50;99.90
37222;DHT22;23119;51.842;-2.230;2023-09-18T14:47:12;20.50;99.90
37222;DHT22;23119;51.842;-2.230;2023-09-18T14:49:40;20.60;99.90
37222;DHT22;23119;51.842;-2.230;2023-09-18T14:52:06;20.60;99.90
37222;DHT22;23119;51.842;-2.230;2023-09-18T14:54:34;20.60;99.90
37222;DHT22;23119;51.842;-2.230;2023-09-18T14:57:00;20.60;99.90
37222;DHT22;23119;51.842;-2.230;2023-09-18T14:59:26;20.60;99.90
37222;DHT22;23119;51.842;-2.230;2023-09-18T15:01:52;20.60;99.90
37222;DHT22;23119;51.842;-2.230;2023-09-18T15:04:18;20.50;99.90
37222;DHT22;23119;51.842;-2.230;2023-09-18T15:06:48;20.40;99.90
37222;DHT22;23119;51.842;-2.230;2023-09-18T15:09:14;20.30;99.90
37222;DHT22;23119;51.842;-2.230;2023-09-18T15:11:40;20.20;99.90
37222;DHT22;23119;51.842;-2.230;2023-09-18T15:14:10;20.10;99.90
37222;DHT22;23119;51.842;-2.230;2023-09-18T15:16:37;20.10;99.90
37222;DHT22;23119;51.842;-2.230;2023-09-18T15:19:02;20.20;99.90
37222;DHT22;23119;51.842;-2.230;2023-09-18T15:21:31;20.20;99.90
37222;DHT22;23119;51.842;-2.230;2023-09-18T15:23:57;20.20;99.90
37222;DHT22;23119;51.842;-2.230;2023-09-18T15:26:23;20.10;99.90
37222;DHT22;23119;51.842;-2.230;2023-09-18T15:28:49;20.00;99.90
37222;DHT22;23119;51.842;-2.230;2023-09-18T15:31:17;19.90;99.90
37222;DHT22;23119;51.842;-2.230;2023-09-18T15:33:43;19.70;99.90
37222;DHT22;23119;51.842;-2.230;2023-09-18T15:36:10;19.60;99.90
37222;DHT22;23119;51.842;-2.230;2023-09-18T15:38:37;19.60;99.90